sim
Sign-in with your pilot id or email,
or register
Callsign
Passwort

Schedule Details

Flight Number: EWG1812
Departure: Munich Airport (EDDM) at 05:30
Arrival: Fuerteventura Airport (GCFV) at 10:10
Route: Eurowings Passenger Schedule. Enter filed route here before submitting Pirep.

Weather Information
Getting current METAR information for EDDM 160350Z VRB01KT 3000 0800N R08L/0450N R26L/P2000N BCFG NSC M04/M05 Q1029 NOSIG
Getting current METAR information for GCFV 160330Z AUTO 28005KT 9999 NCD 14/11 Q1017

Schedule Frequency

Route Map